Time;durP1;ratioP1;P1;durP2;ratioP2;P2;SDS_P1;SDS_P2;PMS_P1;PMS_P2;Temp;Humidity;BMP_temperature;BMP_pressure;BME280_temperature;BME280_humidity;BME280_pressure;Samples;Min_cycle;Max_cycle;Signal;HPM_P1;HPM_P2
2020/12/15 00:01:57;;;;;;;;;;;9.00;99.90;;;;;;5070924;28;19913;-79
2020/12/15 00:04:23;;;;;;;;;;;9.00;99.90;;;;;;5069465;28;19919;-79
2020/12/15 00:06:49;;;;;;;;;;;8.90;99.90;;;;;;5060672;28;19916;-79
2020/12/15 00:09:15;;;;;;;;;;;8.80;99.90;;;;;;5063512;28;19913;-77
2020/12/15 00:11:40;;;;;;;;;;;8.70;99.90;;;;;;5070146;28;19928;-80
2020/12/15 00:14:06;;;;;;;;;;;8.50;99.90;;;;;;5061038;28;20381;-78
2020/12/15 00:16:31;;;;;;;;;;;8.50;99.90;;;;;;5057351;28;19970;-78
2020/12/15 00:18:57;;;;;;;;;;;8.40;99.90;;;;;;5095620;28;19912;-79
2020/12/15 00:21:23;;;;;;;;;;;8.30;99.90;;;;;;5092042;28;19909;-79
2020/12/15 00:23:50;;;;;;;;;;;8.30;99.90;;;;;;5090338;28;19921;-79
2020/12/15 00:26:16;;;;;;;;;;;8.30;99.90;;;;;;5088824;28;19912;-77
2020/12/15 00:28:41;;;;;;;;;;;8.20;99.90;;;;;;5080883;28;20456;-79
2020/12/15 00:31:07;;;;;;;;;;;8.20;99.90;;;;;;5077490;28;19914;-77
2020/12/15 00:33:32;;;;;;;;;;;8.20;99.90;;;;;;5076257;28;19948;-79
2020/12/15 00:35:58;;;;;;;;;;;8.20;99.90;;;;;;5076702;28;19916;-78
2020/12/15 00:38:23;;;;;;;;;;;8.20;99.90;;;;;;5071538;28;19913;-80
2020/12/15 00:40:49;;;;;;;;;;;8.10;99.90;;;;;;5060022;28;19909;-79
2020/12/15 00:43:14;;;;;;;;;;;8.10;99.90;;;;;;5063944;28;19917;-79
2020/12/15 00:45:40;;;;;;;;;;;8.10;99.90;;;;;;5079582;28;19908;-78
2020/12/15 00:48:05;;;;;;;;;;;8.00;99.90;;;;;;5065744;28;19913;-77
2020/12/15 00:50:30;;;;;;;;;;;8.00;99.90;;;;;;5083972;28;19962;-79
2020/12/15 00:52:56;;;;;;;;;;;8.00;99.90;;;;;;5087168;28;19913;-77
2020/12/15 00:55:21;;;;;;;;;;;8.00;99.90;;;;;;5081758;28;20379;-77
2020/12/15 00:57:47;;;;;;;;;;;8.00;99.90;;;;;;5077884;28;20015;-79
2020/12/15 01:00:13;;;;;;;;;;;7.90;99.90;;;;;;5068204;28;19920;-77
2020/12/15 01:02:39;;;;;;;;;;;7.90;99.90;;;;;;5057451;28;19915;-80
2020/12/15 01:05:05;;;;;;;;;;;7.90;99.90;;;;;;5074687;28;20388;-77
2020/12/15 01:07:30;;;;;;;;;;;7.90;99.90;;;;;;5061784;28;19912;-79
2020/12/15 01:09:56;;;;;;;;;;;7.90;99.90;;;;;;5051939;28;19952;-77
2020/12/15 01:12:21;;;;;;;;;;;7.90;99.90;;;;;;5077601;28;19995;-77
2020/12/15 01:14:46;;;;;;;;;;;7.90;99.90;;;;;;5077597;28;20392;-78
2020/12/15 01:17:12;;;;;;;;;;;7.90;99.90;;;;;;5076824;28;19917;-80
2020/12/15 01:19:37;;;;;;;;;;;7.90;99.90;;;;;;5059555;28;19920;-80
2020/12/15 01:22:03;;;;;;;;;;;7.90;99.90;;;;;;5076360;28;19909;-79
2020/12/15 01:24:28;;;;;;;;;;;7.80;99.90;;;;;;5076459;28;19955;-78
2020/12/15 01:26:54;;;;;;;;;;;7.80;99.90;;;;;;5077344;28;20007;-78
2020/12/15 01:29:19;;;;;;;;;;;7.90;99.90;;;;;;5075133;28;19972;-78
2020/12/15 01:31:45;;;;;;;;;;;7.80;99.90;;;;;;5076450;28;19920;-81
2020/12/15 01:34:10;;;;;;;;;;;7.80;99.90;;;;;;5073708;28;19965;-78
2020/12/15 01:36:36;;;;;;;;;;;7.80;99.90;;;;;;5074955;28;19920;-79
2020/12/15 01:39:02;;;;;;;;;;;7.80;99.90;;;;;;5075652;28;19908;-81
2020/12/15 01:41:28;;;;;;;;;;;7.80;99.90;;;;;;5075603;28;19916;-79
2020/12/15 01:43:58;;;;;;;;;;;7.80;99.90;;;;;;5057436;28;19917;-80
2020/12/15 01:46:24;;;;;;;;;;;7.90;99.90;;;;;;5092383;28;20289;-77
2020/12/15 01:48:50;;;;;;;;;;;7.90;99.90;;;;;;5075020;28;20074;-77
2020/12/15 01:51:16;;;;;;;;;;;7.90;99.90;;;;;;5072753;28;20007;-77
2020/12/15 01:53:42;;;;;;;;;;;8.00;99.90;;;;;;5076112;28;19909;-79
2020/12/15 01:56:09;;;;;;;;;;;8.00;99.90;;;;;;5073258;28;20402;-78
2020/12/15 01:58:34;;;;;;;;;;;8.00;99.90;;;;;;5072901;28;19913;-77
2020/12/15 02:01:00;;;;;;;;;;;8.00;99.90;;;;;;5056133;28;19973;-77
2020/12/15 02:03:25;;;;;;;;;;;8.10;99.90;;;;;;5074089;28;19923;-80
2020/12/15 02:05:51;;;;;;;;;;;8.10;99.90;;;;;;5076199;28;19999;-81
2020/12/15 02:08:16;;;;;;;;;;;8.00;99.90;;;;;;5075794;28;19913;-79
2020/12/15 02:10:42;;;;;;;;;;;8.10;99.90;;;;;;5053850;28;19913;-78
2020/12/15 02:13:07;;;;;;;;;;;8.10;99.90;;;;;;5075381;28;19920;-80
2020/12/15 02:15:33;;;;;;;;;;;8.20;99.90;;;;;;5076185;28;19919;-79
2020/12/15 02:17:58;;;;;;;;;;;8.00;99.90;;;;;;5076915;28;19977;-80
2020/12/15 02:20:24;;;;;;;;;;;8.00;99.90;;;;;;5077444;28;20372;-80
2020/12/15 02:22:49;;;;;;;;;;;8.00;99.90;;;;;;5049932;28;19955;-79
2020/12/15 02:25:15;;;;;;;;;;;8.00;99.90;;;;;;5060334;28;19935;-78
2020/12/15 02:27:40;;;;;;;;;;;8.00;99.90;;;;;;5072602;28;19917;-79
2020/12/15 02:30:06;;;;;;;;;;;8.00;99.90;;;;;;5076641;28;19912;-80
2020/12/15 02:32:32;;;;;;;;;;;8.00;99.90;;;;;;5076236;28;19912;-79
2020/12/15 02:34:58;;;;;;;;;;;8.00;99.90;;;;;;5077743;28;19912;-79
2020/12/15 02:37:23;;;;;;;;;;;8.00;99.90;;;;;;5077626;28;20007;-80
2020/12/15 02:39:49;;;;;;;;;;;8.00;99.90;;;;;;5077945;28;19921;-80
2020/12/15 02:42:14;;;;;;;;;;;8.00;99.90;;;;;;5058303;28;19931;-79
2020/12/15 02:44:40;;;;;;;;;;;8.00;99.90;;;;;;5076529;28;19917;-79
2020/12/15 02:47:05;;;;;;;;;;;8.00;99.90;;;;;;5075405;28;20372;-80
2020/12/15 02:49:31;;;;;;;;;;;8.00;99.90;;;;;;5078599;28;20330;-80
2020/12/15 02:51:56;;;;;;;;;;;8.00;99.90;;;;;;5058985;28;20342;-81
2020/12/15 02:54:22;;;;;;;;;;;7.90;99.90;;;;;;5078155;28;19934;-81
2020/12/15 02:56:47;;;;;;;;;;;8.00;99.90;;;;;;5077897;28;19919;-79
2020/12/15 02:59:13;;;;;;;;;;;8.00;99.90;;;;;;5066979;28;19916;-79
2020/12/15 03:01:39;;;;;;;;;;;8.00;99.90;;;;;;5072975;28;19915;-80
2020/12/15 03:04:05;;;;;;;;;;;8.00;99.90;;;;;;5073532;28;20305;-80
2020/12/15 03:06:30;;;;;;;;;;;8.00;99.90;;;;;;5076384;28;20293;-80
2020/12/15 03:08:56;;;;;;;;;;;8.00;99.90;;;;;;5072403;28;19965;-81
2020/12/15 03:11:22;;;;;;;;;;;8.00;99.90;;;;;;5077132;28;19913;-81
2020/12/15 03:13:48;;;;;;;;;;;8.10;99.90;;;;;;5077487;28;19930;-80
2020/12/15 03:16:13;;;;;;;;;;;8.10;99.90;;;;;;5078249;28;19920;-80
2020/12/15 03:18:39;;;;;;;;;;;8.10;99.90;;;;;;5058873;28;19912;-80
2020/12/15 03:21:07;;;;;;;;;;;8.10;99.90;;;;;;5077985;28;19927;-79
2020/12/15 03:23:33;;;;;;;;;;;8.20;99.90;;;;;;5074899;28;19912;-79
2020/12/15 03:25:58;;;;;;;;;;;8.20;99.90;;;;;;5076134;28;19969;-80
2020/12/15 03:28:24;;;;;;;;;;;8.20;99.90;;;;;;5076392;28;19919;-79
2020/12/15 03:30:49;;;;;;;;;;;8.20;99.90;;;;;;5077271;28;20316;-79
2020/12/15 03:33:15;;;;;;;;;;;8.20;99.90;;;;;;5076945;28;20008;-80
2020/12/15 03:35:41;;;;;;;;;;;8.20;99.90;;;;;;5076840;28;19909;-81
2020/12/15 03:38:06;;;;;;;;;;;8.20;99.90;;;;;;5076042;28;19922;-79
2020/12/15 03:40:32;;;;;;;;;;;8.20;99.90;;;;;;5087443;22;19924;-81
2020/12/15 03:42:57;;;;;;;;;;;8.10;99.90;;;;;;5023853;28;20368;-82
2020/12/15 03:45:23;;;;;;;;;;;8.20;99.90;;;;;;5054248;28;19916;-81
2020/12/15 03:47:48;;;;;;;;;;;8.20;99.90;;;;;;5056116;28;19920;-81
2020/12/15 03:50:14;;;;;;;;;;;8.20;99.90;;;;;;5037774;28;19966;-81
2020/12/15 03:52:39;;;;;;;;;;;8.20;99.90;;;;;;5055456;28;19927;-81
2020/12/15 03:55:05;;;;;;;;;;;8.20;99.90;;;;;;5056064;28;19948;-81
2020/12/15 03:57:31;;;;;;;;;;;8.20;99.90;;;;;;5054761;28;19917;-82
2020/12/15 03:59:56;;;;;;;;;;;8.20;99.90;;;;;;5037969;28;20024;-81
2020/12/15 04:02:22;;;;;;;;;;;8.20;99.90;;;;;;5038452;28;19948;-82
2020/12/15 04:04:47;;;;;;;;;;;8.30;99.90;;;;;;5041386;28;19920;-81
2020/12/15 04:07:13;;;;;;;;;;;8.20;99.90;;;;;;5060033;28;19935;-81
2020/12/15 04:09:38;;;;;;;;;;;8.20;99.90;;;;;;5041381;28;19964;-81
2020/12/15 04:12:05;;;;;;;;;;;8.20;99.90;;;;;;5060553;28;19920;-81
2020/12/15 04:14:31;;;;;;;;;;;8.30;99.90;;;;;;5057915;28;19913;-81
2020/12/15 04:16:56;;;;;;;;;;;8.20;99.90;;;;;;5060436;28;19988;-81
2020/12/15 04:19:21;;;;;;;;;;;8.30;99.90;;;;;;5040999;28;19920;-81
2020/12/15 04:21:47;;;;;;;;;;;8.30;99.90;;;;;;5042774;28;19909;-81
2020/12/15 04:24:12;;;;;;;;;;;8.30;99.90;;;;;;5041399;28;19940;-81
2020/12/15 04:26:38;;;;;;;;;;;8.30;99.90;;;;;;5059410;28;19948;-81
2020/12/15 04:29:03;;;;;;;;;;;8.30;99.90;;;;;;5041500;28;19920;-81
2020/12/15 04:31:31;;;;;;;;;;;8.30;99.90;;;;;;5057009;28;20046;-80
2020/12/15 04:33:57;;;;;;;;;;;8.30;99.90;;;;;;5039945;28;19913;-81
2020/12/15 04:36:24;;;;;;;;;;;8.30;99.90;;;;;;5041311;28;19913;-81
2020/12/15 04:38:49;;;;;;;;;;;8.50;99.90;;;;;;5040566;28;20005;-81
2020/12/15 04:41:15;;;;;;;;;;;8.40;99.90;;;;;;5041755;28;20343;-81
2020/12/15 04:43:41;;;;;;;;;;;8.40;99.90;;;;;;5041838;28;19941;-81
2020/12/15 04:46:08;;;;;;;;;;;8.40;99.90;;;;;;5059218;28;19948;-81
2020/12/15 04:48:35;;;;;;;;;;;8.40;99.90;;;;;;5059026;28;19916;-81
2020/12/15 04:51:01;;;;;;;;;;;8.50;99.90;;;;;;5033917;28;19912;-82
2020/12/15 04:53:27;;;;;;;;;;;8.50;99.90;;;;;;5059017;28;19951;-82
2020/12/15 04:55:54;;;;;;;;;;;8.50;99.90;;;;;;5054120;28;19913;-81
2020/12/15 04:58:20;;;;;;;;;;;8.50;99.90;;;;;;5030212;28;19924;-82
2020/12/15 05:00:46;;;;;;;;;;;8.60;99.90;;;;;;5059448;28;19912;-81
2020/12/15 05:03:14;;;;;;;;;;;8.60;99.90;;;;;;5060221;28;20328;-81
2020/12/15 05:05:39;;;;;;;;;;;8.50;99.90;;;;;;5054452;28;19913;-81
2020/12/15 05:08:05;;;;;;;;;;;8.50;99.90;;;;;;5059558;28;19912;-81
2020/12/15 05:10:30;;;;;;;;;;;8.60;99.90;;;;;;5057922;28;20363;-81
2020/12/15 05:12:56;;;;;;;;;;;8.50;99.90;;;;;;5057475;28;19920;-81
2020/12/15 05:15:21;;;;;;;;;;;8.50;99.90;;;;;;5056752;28;20342;-82
2020/12/15 05:17:47;;;;;;;;;;;8.50;99.90;;;;;;5058303;28;20351;-81
2020/12/15 05:20:18;;;;;;;;;;;8.60;99.90;;;;;;5039692;28;19957;-81
2020/12/15 05:22:44;;;;;;;;;;;8.60;99.90;;;;;;5059213;28;19908;-81
2020/12/15 05:25:22;;;;;;;;;;;8.60;99.90;;;;;;5040184;28;19988;-81
2020/12/15 05:27:48;;;;;;;;;;;8.60;99.90;;;;;;5058374;28;20442;-81
2020/12/15 05:30:13;;;;;;;;;;;8.60;99.90;;;;;;5035990;28;20000;-81
2020/12/15 05:32:55;;;;;;;;;;;8.60;99.90;;;;;;5039900;28;19916;-81
2020/12/15 05:35:35;;;;;;;;;;;8.70;99.90;;;;;;5038930;28;20008;-81
2020/12/15 05:38:02;;;;;;;;;;;8.70;99.90;;;;;;5057748;28;20011;-81
2020/12/15 05:40:28;;;;;;;;;;;8.70;99.90;;;;;;5058157;28;19909;-81
2020/12/15 05:42:54;;;;;;;;;;;8.70;99.90;;;;;;5057460;28;19979;-81
2020/12/15 05:45:20;;;;;;;;;;;8.70;99.90;;;;;;5040587;28;20003;-81
2020/12/15 05:47:48;;;;;;;;;;;8.70;99.90;;;;;;5057457;28;20254;-82
2020/12/15 05:50:25;;;;;;;;;;;8.70;99.90;;;;;;5035879;28;19921;-81
2020/12/15 05:53:09;;;;;;;;;;;8.70;99.90;;;;;;5050647;28;19920;-81
2020/12/15 05:55:34;;;;;;;;;;;8.70;99.90;;;;;;5056931;28;20352;-80
2020/12/15 05:58:00;;;;;;;;;;;8.70;99.90;;;;;;5039517;28;19917;-82
2020/12/15 06:00:26;;;;;;;;;;;8.70;99.90;;;;;;5058321;28;19920;-81
2020/12/15 06:02:58;;;;;;;;;;;8.70;99.90;;;;;;5056593;28;19963;-81
2020/12/15 06:05:27;;;;;;;;;;;8.70;99.90;;;;;;5056451;28;20402;-81
2020/12/15 06:07:54;;;;;;;;;;;8.80;99.90;;;;;;5037286;28;19920;-81
2020/12/15 06:10:20;;;;;;;;;;;8.80;99.90;;;;;;5056904;28;20392;-81
2020/12/15 06:12:48;;;;;;;;;;;8.70;99.90;;;;;;5055535;28;19988;-81
2020/12/15 06:15:13;;;;;;;;;;;8.80;99.90;;;;;;5056165;28;19913;-81
2020/12/15 06:17:39;;;;;;;;;;;8.80;99.90;;;;;;5039841;28;20443;-81
2020/12/15 06:20:08;;;;;;;;;;;8.80;99.90;;;;;;5056957;28;19924;-81
2020/12/15 06:22:34;;;;;;;;;;;8.80;99.90;;;;;;5057944;28;19912;-81
2020/12/15 06:25:00;;;;;;;;;;;8.70;99.90;;;;;;5055755;28;19928;-80
2020/12/15 06:27:30;;;;;;;;;;;8.70;99.90;;;;;;5022026;28;20369;-81
2020/12/15 06:29:56;;;;;;;;;;;8.70;99.90;;;;;;5038108;28;19908;-80
2020/12/15 06:32:21;;;;;;;;;;;8.60;99.90;;;;;;5046014;28;19995;-81
2020/12/15 06:34:47;;;;;;;;;;;8.60;99.90;;;;;;5060841;28;19955;-82
2020/12/15 06:37:17;;;;;;;;;;;8.60;99.90;;;;;;5037346;28;19967;-81
2020/12/15 06:39:56;;;;;;;;;;;8.60;99.90;;;;;;5039690;28;19972;-81
2020/12/15 06:42:22;;;;;;;;;;;8.60;99.90;;;;;;5036359;28;19921;-81
2020/12/15 06:44:57;;;;;;;;;;;8.70;99.90;;;;;;5056237;28;20549;-82
2020/12/15 06:47:24;;;;;;;;;;;8.60;99.90;;;;;;5042111;28;19963;-81
2020/12/15 06:49:49;;;;;;;;;;;8.60;99.90;;;;;;5057065;28;19912;-81
2020/12/15 06:52:25;;;;;;;;;;;8.70;99.90;;;;;;5038269;28;19913;-81
2020/12/15 06:54:55;;;;;;;;;;;8.60;99.90;;;;;;5038473;28;19913;-81
2020/12/15 06:57:29;;;;;;;;;;;8.60;99.90;;;;;;5056693;28;19916;-81
2020/12/15 06:59:54;;;;;;;;;;;8.60;99.90;;;;;;5035610;28;19916;-81
2020/12/15 07:02:27;;;;;;;;;;;8.60;99.90;;;;;;5038558;28;19916;-81
2020/12/15 07:04:53;;;;;;;;;;;8.60;99.90;;;;;;5037083;28;19921;-82
2020/12/15 07:07:18;;;;;;;;;;;8.60;99.90;;;;;;5057904;28;19920;-82
2020/12/15 07:09:44;;;;;;;;;;;8.60;99.90;;;;;;5057228;28;19920;-81
2020/12/15 07:12:11;;;;;;;;;;;8.70;99.90;;;;;;5056584;28;19913;-83
2020/12/15 07:14:36;;;;;;;;;;;8.70;99.90;;;;;;5037984;28;19912;-82
2020/12/15 07:17:02;;;;;;;;;;;8.80;99.90;;;;;;5032490;28;19917;-83
2020/12/15 07:19:27;;;;;;;;;;;8.80;99.90;;;;;;5057161;28;19909;-82
2020/12/15 07:21:53;;;;;;;;;;;8.80;99.90;;;;;;5056457;28;19913;-82
2020/12/15 07:24:18;;;;;;;;;;;8.80;99.90;;;;;;5039224;28;19919;-82
2020/12/15 07:26:44;;;;;;;;;;;9.00;99.90;;;;;;5057037;28;19917;-82
2020/12/15 07:29:10;;;;;;;;;;;8.90;99.90;;;;;;5057463;28;19913;-82
2020/12/15 07:31:35;;;;;;;;;;;8.90;99.90;;;;;;5037633;28;19912;-82
2020/12/15 07:34:11;;;;;;;;;;;8.90;99.90;;;;;;5057366;28;19920;-83
2020/12/15 07:36:37;;;;;;;;;;;8.90;99.90;;;;;;5055862;28;19978;-83
2020/12/15 07:39:04;;;;;;;;;;;9.00;99.90;;;;;;5042471;28;19932;-82
2020/12/15 07:41:30;;;;;;;;;;;8.90;99.90;;;;;;5060779;28;20374;-82
2020/12/15 07:43:56;;;;;;;;;;;8.90;99.90;;;;;;5043532;28;19998;-82
2020/12/15 07:46:23;;;;;;;;;;;8.90;99.90;;;;;;5048112;28;19955;-82
2020/12/15 07:48:50;;;;;;;;;;;8.90;99.90;;;;;;5058794;28;19913;-82
2020/12/15 07:51:15;;;;;;;;;;;8.90;99.90;;;;;;5040971;28;19966;-82
2020/12/15 07:53:53;;;;;;;;;;;9.00;99.90;;;;;;5059525;28;19913;-82
2020/12/15 07:56:19;;;;;;;;;;;9.00;99.90;;;;;;5060747;28;20008;-82
2020/12/15 07:58:48;;;;;;;;;;;9.10;99.90;;;;;;5042296;28;19964;-81
2020/12/15 08:01:18;;;;;;;;;;;9.00;99.90;;;;;;5061145;28;19913;-82
2020/12/15 08:03:44;;;;;;;;;;;9.00;99.90;;;;;;5059924;28;19913;-83
2020/12/15 08:06:10;;;;;;;;;;;9.00;99.90;;;;;;5057137;28;19920;-82
2020/12/15 08:08:35;;;;;;;;;;;9.10;99.90;;;;;;5041944;28;19917;-83
2020/12/15 08:11:01;;;;;;;;;;;9.10;99.90;;;;;;5056584;28;19917;-83
2020/12/15 08:13:26;;;;;;;;;;;9.10;99.90;;;;;;5053249;28;19909;-82
2020/12/15 08:15:52;;;;;;;;;;;9.20;99.90;;;;;;5045455;28;19919;-83
2020/12/15 08:18:18;;;;;;;;;;;9.20;99.90;;;;;;5033672;28;19921;-83
2020/12/15 08:20:45;;;;;;;;;;;9.30;99.90;;;;;;5023613;28;19952;-84
2020/12/15 08:23:12;;;;;;;;;;;9.30;99.90;;;;;;5034914;28;19913;-84
2020/12/15 08:25:39;;;;;;;;;;;9.30;99.90;;;;;;5043205;28;19916;-84
2020/12/15 08:28:21;;;;;;;;;;;9.30;99.90;;;;;;5042205;28;19920;-83
2020/12/15 08:30:46;;;;;;;;;;;9.40;99.90;;;;;;5043059;28;19912;-84
2020/12/15 08:33:20;;;;;;;;;;;9.40;99.90;;;;;;5043686;28;19913;-84
2020/12/15 08:35:48;;;;;;;;;;;9.60;99.90;;;;;;5037120;28;19933;-84
2020/12/15 08:38:13;;;;;;;;;;;9.70;99.90;;;;;;5051704;28;19939;-84
2020/12/15 08:40:39;;;;;;;;;;;9.70;99.90;;;;;;5041798;28;19921;-83
2020/12/15 08:43:04;;;;;;;;;;;9.80;99.90;;;;;;5059170;28;19942;-84
2020/12/15 08:45:30;;;;;;;;;;;9.80;99.90;;;;;;5042519;28;19913;-84
2020/12/15 08:47:56;;;;;;;;;;;9.80;99.90;;;;;;5042715;28;20400;-84
2020/12/15 08:50:25;;;;;;;;;;;9.80;99.90;;;;;;5059758;28;19968;-84
2020/12/15 08:52:50;;;;;;;;;;;9.80;99.90;;;;;;5050453;28;19948;-84
2020/12/15 08:55:25;;;;;;;;;;;9.70;99.90;;;;;;5059228;28;20441;-84
2020/12/15 08:57:58;;;;;;;;;;;9.80;99.90;;;;;;5042469;28;19916;-84
2020/12/15 09:00:23;;;;;;;;;;;9.80;99.90;;;;;;5059658;28;19995;-83
2020/12/15 09:02:48;;;;;;;;;;;9.90;99.90;;;;;;5060300;28;19963;-83
2020/12/15 09:05:14;;;;;;;;;;;9.90;99.90;;;;;;5042153;28;19917;-85
2020/12/15 09:07:40;;;;;;;;;;;9.90;99.90;;;;;;5040035;28;20022;-84
2020/12/15 09:10:09;;;;;;;;;;;9.90;99.90;;;;;;5060650;28;19913;-84
2020/12/15 09:12:35;;;;;;;;;;;9.90;99.90;;;;;;5040970;28;20416;-84
2020/12/15 09:15:01;;;;;;;;;;;9.90;99.90;;;;;;5042356;28;20007;-84
2020/12/15 09:17:26;;;;;;;;;;;9.80;99.90;;;;;;5042211;28;20300;-84
2020/12/15 09:19:52;;;;;;;;;;;9.80;99.90;;;;;;5029743;28;19913;-84
2020/12/15 09:22:17;;;;;;;;;;;9.90;99.90;;;;;;5031913;28;19940;-85
2020/12/15 09:24:43;;;;;;;;;;;9.80;99.90;;;;;;5040355;28;19970;-83
2020/12/15 09:27:22;;;;;;;;;;;9.80;99.90;;;;;;5030511;28;19908;-84
2020/12/15 09:29:48;;;;;;;;;;;9.80;99.90;;;;;;5039790;28;19944;-84
2020/12/15 09:32:13;;;;;;;;;;;9.80;99.90;;;;;;5050861;28;19919;-83
2020/12/15 09:34:39;;;;;;;;;;;9.80;99.90;;;;;;5041193;28;19920;-83
2020/12/15 09:37:04;;;;;;;;;;;9.80;99.90;;;;;;5041870;28;19933;-84
2020/12/15 09:39:30;;;;;;;;;;;9.90;99.90;;;;;;5041355;28;19959;-85
2020/12/15 09:41:57;;;;;;;;;;;9.90;99.90;;;;;;5060628;28;19916;-84
2020/12/15 09:44:22;;;;;;;;;;;9.90;99.90;;;;;;5043573;28;20271;-83
2020/12/15 09:46:48;;;;;;;;;;;10.00;99.90;;;;;;5042077;28;19966;-83
2020/12/15 09:49:13;;;;;;;;;;;10.10;99.90;;;;;;5060054;28;20011;-83
2020/12/15 09:51:42;;;;;;;;;;;10.00;99.90;;;;;;5032733;28;19913;-84
2020/12/15 09:54:08;;;;;;;;;;;10.20;99.90;;;;;;5039621;28;20368;-83
2020/12/15 09:56:34;;;;;;;;;;;10.10;99.90;;;;;;5036576;28;19916;-83
2020/12/15 09:58:59;;;;;;;;;;;10.20;99.90;;;;;;5057756;23;20310;-82
2020/12/15 10:01:25;;;;;;;;;;;10.30;99.90;;;;;;5037914;28;20036;-83
2020/12/15 10:03:50;;;;;;;;;;;10.30;99.90;;;;;;5037350;28;19967;-81
2020/12/15 10:06:16;;;;;;;;;;;10.30;99.90;;;;;;5023348;28;19913;-80
2020/12/15 10:08:42;;;;;;;;;;;10.30;99.90;;;;;;5034406;28;19924;-79
2020/12/15 10:11:10;;;;;;;;;;;10.40;99.90;;;;;;5027131;28;19920;-83
2020/12/15 10:13:36;;;;;;;;;;;10.40;99.90;;;;;;5034022;28;20004;-80
2020/12/15 10:16:02;;;;;;;;;;;10.40;99.90;;;;;;5031458;28;19952;-80
2020/12/15 10:18:27;;;;;;;;;;;10.40;99.90;;;;;;5034904;28;20365;-83
2020/12/15 10:20:53;;;;;;;;;;;10.50;99.90;;;;;;5035628;28;19910;-80
2020/12/15 10:23:18;;;;;;;;;;;10.40;99.90;;;;;;5033263;28;19913;-79
2020/12/15 10:25:44;;;;;;;;;;;10.50;99.90;;;;;;5032571;28;20012;-82
2020/12/15 10:28:11;;;;;;;;;;;10.50;99.90;;;;;;5031730;28;19925;-80
2020/12/15 10:30:36;;;;;;;;;;;10.40;99.90;;;;;;5030088;28;19913;-81
2020/12/15 10:33:02;;;;;;;;;;;10.50;99.90;;;;;;5031399;28;20447;-82
2020/12/15 10:35:27;;;;;;;;;;;10.50;99.90;;;;;;5034392;28;20331;-80
2020/12/15 10:37:53;;;;;;;;;;;10.50;99.90;;;;;;5028438;28;20460;-81
2020/12/15 10:40:18;;;;;;;;;;;10.40;99.90;;;;;;5033882;28;19924;-79
2020/12/15 10:42:44;;;;;;;;;;;10.60;99.90;;;;;;5034563;28;20003;-80
2020/12/15 10:45:09;;;;;;;;;;;10.60;99.90;;;;;;5029951;28;19918;-81
2020/12/15 10:47:35;;;;;;;;;;;10.70;99.90;;;;;;5026333;28;20396;-80
2020/12/15 10:50:00;;;;;;;;;;;10.70;99.90;;;;;;5033987;28;19924;-79
2020/12/15 10:52:26;;;;;;;;;;;10.90;99.90;;;;;;5025826;28;20393;-81
2020/12/15 10:54:51;;;;;;;;;;;10.90;99.90;;;;;;5025965;28;20381;-80
2020/12/15 10:57:17;;;;;;;;;;;11.00;99.90;;;;;;5027983;28;20032;-80
2020/12/15 10:59:42;;;;;;;;;;;11.00;99.90;;;;;;5022853;28;19917;-82
2020/12/15 11:02:09;;;;;;;;;;;10.90;99.90;;;;;;5028501;28;20459;-79
2020/12/15 11:04:35;;;;;;;;;;;10.90;99.90;;;;;;5020107;28;19913;-80
2020/12/15 11:07:00;;;;;;;;;;;10.80;99.90;;;;;;5028142;28;19917;-80
2020/12/15 11:09:25;;;;;;;;;;;10.80;99.90;;;;;;5032066;28;19937;-81
2020/12/15 11:11:51;;;;;;;;;;;10.70;99.90;;;;;;5034489;28;19913;-82
2020/12/15 11:14:16;;;;;;;;;;;10.70;99.90;;;;;;5033950;28;19933;-80
2020/12/15 11:16:42;;;;;;;;;;;10.70;99.90;;;;;;5036303;28;20384;-80
2020/12/15 11:19:08;;;;;;;;;;;10.60;99.90;;;;;;5035490;28;20360;-82
2020/12/15 11:21:33;;;;;;;;;;;10.60;99.90;;;;;;5023370;28;19985;-82
2020/12/15 11:23:58;;;;;;;;;;;10.60;99.90;;;;;;5029921;28;20425;-82
2020/12/15 11:26:24;;;;;;;;;;;10.60;99.90;;;;;;5031468;28;20352;-82
2020/12/15 11:28:49;;;;;;;;;;;10.70;99.90;;;;;;5026991;28;19924;-80
2020/12/15 11:31:15;;;;;;;;;;;10.70;99.90;;;;;;5036421;28;20564;-81
2020/12/15 11:33:42;;;;;;;;;;;10.70;99.90;;;;;;5036913;28;19913;-80
2020/12/15 11:36:08;;;;;;;;;;;10.80;99.90;;;;;;5036396;28;19913;-82
2020/12/15 11:38:33;;;;;;;;;;;10.70;99.90;;;;;;5037990;28;19936;-82
2020/12/15 11:40:59;;;;;;;;;;;10.80;99.90;;;;;;5037833;28;19925;-82
2020/12/15 11:43:24;;;;;;;;;;;10.70;99.90;;;;;;5038595;28;20381;-82
2020/12/15 11:45:50;;;;;;;;;;;10.70;99.90;;;;;;5036038;28;19976;-80
2020/12/15 11:48:15;;;;;;;;;;;10.70;99.90;;;;;;5037205;28;19910;-83
2020/12/15 11:50:41;;;;;;;;;;;10.80;99.90;;;;;;5034034;28;19979;-81
2020/12/15 11:53:06;;;;;;;;;;;10.80;99.90;;;;;;5034605;28;20000;-82
2020/12/15 11:55:31;;;;;;;;;;;10.80;99.90;;;;;;5035785;28;19920;-84
2020/12/15 11:57:57;;;;;;;;;;;10.80;99.90;;;;;;5032173;28;20615;-81
2020/12/15 12:00:22;;;;;;;;;;;10.80;99.90;;;;;;5035237;28;19920;-82
2020/12/15 12:02:48;;;;;;;;;;;10.80;99.90;;;;;;5029466;28;19917;-84
2020/12/15 12:05:20;;;;;;;;;;;10.80;99.90;;;;;;5037734;28;19918;-82
2020/12/15 12:07:46;;;;;;;;;;;10.80;99.90;;;;;;5026402;28;19920;-82
2020/12/15 12:10:11;;;;;;;;;;;10.80;99.90;;;;;;5038546;28;19913;-82
2020/12/15 12:12:37;;;;;;;;;;;10.80;99.90;;;;;;5036226;28;19913;-82
2020/12/15 12:15:03;;;;;;;;;;;10.80;99.90;;;;;;5035956;28;20385;-82
2020/12/15 12:17:28;;;;;;;;;;;10.80;99.90;;;;;;5036302;28;19917;-81
2020/12/15 12:19:55;;;;;;;;;;;10.80;99.90;;;;;;5022373;28;19917;-81
2020/12/15 12:22:20;;;;;;;;;;;10.80;99.90;;;;;;5029127;28;19913;-82
2020/12/15 12:24:46;;;;;;;;;;;10.80;99.90;;;;;;5028713;28;19913;-83
2020/12/15 12:27:11;;;;;;;;;;;10.80;99.90;;;;;;5039843;28;19920;-83
2020/12/15 12:29:37;;;;;;;;;;;10.80;99.90;;;;;;5039167;28;19975;-81
2020/12/15 12:32:03;;;;;;;;;;;10.80;99.90;;;;;;5041232;28;19917;-80
2020/12/15 12:34:28;;;;;;;;;;;10.80;99.90;;;;;;5031446;28;19914;-82
2020/12/15 12:36:54;;;;;;;;;;;10.80;99.90;;;;;;5037983;28;19917;-81
2020/12/15 12:39:19;;;;;;;;;;;10.80;99.90;;;;;;5037257;28;19917;-82
2020/12/15 12:41:48;;;;;;;;;;;10.80;99.90;;;;;;5039391;28;19913;-83
2020/12/15 12:44:14;;;;;;;;;;;10.80;99.90;;;;;;5035818;28;19913;-81
2020/12/15 12:46:39;;;;;;;;;;;10.80;99.90;;;;;;5029388;28;20397;-82
2020/12/15 12:49:06;;;;;;;;;;;10.80;99.90;;;;;;5032736;28;19913;-84
2020/12/15 12:51:32;;;;;;;;;;;10.70;99.90;;;;;;5035853;28;20450;-82
2020/12/15 12:53:57;;;;;;;;;;;10.70;99.90;;;;;;5037467;28;19917;-84
2020/12/15 12:56:22;;;;;;;;;;;10.70;99.90;;;;;;5031503;28;19989;-81
2020/12/15 12:58:48;;;;;;;;;;;10.70;99.90;;;;;;5029269;28;19956;-81
2020/12/15 13:01:14;;;;;;;;;;;10.70;99.90;;;;;;5036640;28;19913;-83
2020/12/15 13:03:39;;;;;;;;;;;10.70;99.90;;;;;;5030104;28;19928;-82
2020/12/15 13:06:06;;;;;;;;;;;10.70;99.90;;;;;;5027847;28;19964;-82
2020/12/15 13:08:31;;;;;;;;;;;10.70;99.90;;;;;;5037006;28;19917;-83
2020/12/15 13:10:57;;;;;;;;;;;10.60;99.90;;;;;;5030699;28;19920;-83
2020/12/15 13:13:22;;;;;;;;;;;10.60;99.90;;;;;;5027542;28;19936;-80
2020/12/15 13:15:48;;;;;;;;;;;10.70;99.90;;;;;;5036570;28;19913;-80
2020/12/15 13:18:13;;;;;;;;;;;10.70;99.90;;;;;;5027970;28;19964;-81
2020/12/15 13:20:38;;;;;;;;;;;10.80;99.90;;;;;;5023688;28;19993;-80
2020/12/15 13:23:04;;;;;;;;;;;10.90;99.90;;;;;;5025057;28;19992;-81
2020/12/15 13:25:29;;;;;;;;;;;10.80;99.90;;;;;;5023722;28;19916;-83
2020/12/15 13:27:55;;;;;;;;;;;10.80;99.90;;;;;;5028430;28;19921;-80
2020/12/15 13:30:21;;;;;;;;;;;10.80;99.90;;;;;;5028322;28;19909;-78
2020/12/15 13:32:46;;;;;;;;;;;10.80;99.90;;;;;;5025282;28;20381;-80
2020/12/15 13:35:12;;;;;;;;;;;10.80;99.90;;;;;;5033708;28;20262;-82
2020/12/15 13:37:37;;;;;;;;;;;10.80;99.90;;;;;;5027332;28;19918;-83
2020/12/15 13:40:03;;;;;;;;;;;10.90;99.90;;;;;;5039101;28;19936;-82
2020/12/15 13:42:29;;;;;;;;;;;11.00;99.90;;;;;;5035300;28;19961;-81
2020/12/15 13:44:55;;;;;;;;;;;11.10;99.90;;;;;;5025468;28;19935;-83
2020/12/15 13:47:21;;;;;;;;;;;11.10;99.90;;;;;;5035947;28;19913;-81
2020/12/15 13:49:50;;;;;;;;;;;11.10;99.90;;;;;;5036556;28;20326;-81
2020/12/15 13:52:15;;;;;;;;;;;11.10;99.90;;;;;;5027732;28;19917;-81
2020/12/15 13:54:41;;;;;;;;;;;11.10;99.90;;;;;;5025094;28;19909;-82
2020/12/15 13:57:06;;;;;;;;;;;11.10;99.90;;;;;;5030443;28;19913;-79
2020/12/15 13:59:32;;;;;;;;;;;10.90;99.90;;;;;;5036068;28;20237;-80
2020/12/15 14:01:59;;;;;;;;;;;10.90;99.90;;;;;;5036525;28;20262;-80
2020/12/15 14:04:24;;;;;;;;;;;11.00;99.90;;;;;;5030286;28;19916;-79
2020/12/15 14:06:50;;;;;;;;;;;11.00;99.90;;;;;;5029030;28;19913;-81
2020/12/15 14:09:15;;;;;;;;;;;11.00;99.90;;;;;;5030681;28;20001;-79
2020/12/15 14:11:41;;;;;;;;;;;11.00;99.90;;;;;;5032373;28;19933;-82
2020/12/15 14:14:06;;;;;;;;;;;11.10;99.90;;;;;;5025868;28;19921;-83
2020/12/15 14:16:32;;;;;;;;;;;11.20;99.90;;;;;;5029435;28;19910;-82
2020/12/15 14:18:57;;;;;;;;;;;11.20;99.90;;;;;;5029396;28;20305;-80
2020/12/15 14:21:22;;;;;;;;;;;11.30;99.90;;;;;;5032452;28;20044;-81